createdAt,value
2016-12-23T00:00:50.323Z,1020.73
2016-12-23T00:01:50.451Z,1020.78
2016-12-23T00:02:50.270Z,1020.77
2016-12-23T00:03:50.297Z,1020.78
2016-12-23T00:04:50.608Z,1020.76
2016-12-23T00:05:50.334Z,1020.73
2016-12-23T00:06:50.290Z,1020.74
2016-12-23T00:07:50.351Z,1020.75
2016-12-23T00:08:50.352Z,1020.83
2016-12-23T00:09:50.399Z,1020.84
2016-12-23T00:10:50.638Z,1020.82
2016-12-23T00:11:50.588Z,1020.75
2016-12-23T00:12:50.637Z,1020.76
2016-12-23T00:13:50.431Z,1020.75
2016-12-23T00:14:50.619Z,1020.8
2016-12-23T00:15:50.561Z,1020.82
2016-12-23T00:16:50.512Z,1020.86
2016-12-23T00:17:50.535Z,1020.86
2016-12-23T00:18:50.550Z,1020.9
2016-12-23T00:19:50.975Z,1020.85
2016-12-23T00:20:50.676Z,1020.88
2016-12-23T00:21:50.513Z,1020.85
2016-12-23T00:22:50.718Z,1020.9
2016-12-23T00:23:50.735Z,1020.93
2016-12-23T00:24:50.651Z,1020.91
2016-12-23T00:25:50.867Z,1020.99
2016-12-23T00:26:50.610Z,1021.08
2016-12-23T00:27:50.760Z,1021.1
2016-12-23T00:28:50.579Z,1021.12
2016-12-23T00:29:50.635Z,1021.08
2016-12-23T00:30:50.957Z,1021.06
2016-12-23T00:31:50.726Z,1021.06
2016-12-23T00:32:50.696Z,1021.05
2016-12-23T00:33:50.795Z,1021.12
2016-12-23T00:34:50.699Z,1021.16
2016-12-23T00:35:50.848Z,1021.23
2016-12-23T00:36:50.863Z,1021.26
2016-12-23T00:37:50.854Z,1021.32
2016-12-23T00:38:50.930Z,1021.39
2016-12-23T00:39:50.886Z,1021.44
2016-12-23T00:40:51.319Z,1021.49
2016-12-23T00:41:51.031Z,1021.56
2016-12-23T00:42:50.917Z,1021.69
2016-12-23T00:43:50.882Z,1021.73
2016-12-23T00:44:50.912Z,1021.72
2016-12-23T00:45:50.963Z,1021.8
2016-12-23T00:46:50.862Z,1021.78
2016-12-23T00:47:51.148Z,1021.82
2016-12-23T00:48:51.179Z,1021.79
2016-12-23T00:49:50.859Z,1021.75
2016-12-23T00:50:50.899Z,1021.71
2016-12-23T00:51:50.933Z,1021.72
2016-12-23T00:52:50.986Z,1021.78
2016-12-23T00:53:51.166Z,1021.8
2016-12-23T00:54:50.920Z,1021.78
2016-12-23T00:55:51.154Z,1021.77
2016-12-23T00:56:50.908Z,1021.69
2016-12-23T00:57:51.145Z,1021.68
2016-12-23T00:58:50.949Z,1021.67
2016-12-23T00:59:51.120Z,1021.62
2016-12-23T01:00:51.146Z,1021.67
2016-12-23T01:01:51.058Z,1021.72
2016-12-23T01:02:51.119Z,1021.79
2016-12-23T01:03:51.152Z,1021.87
2016-12-23T01:04:51.267Z,1021.92
2016-12-23T01:05:51.252Z,1021.94
2016-12-23T01:06:51.237Z,1021.94
2016-12-23T01:07:51.432Z,1021.94
2016-12-23T01:08:51.329Z,1021.93
2016-12-23T01:09:51.155Z,1021.98
2016-12-23T01:10:51.523Z,1022.01
2016-12-23T01:11:51.512Z,1022
2016-12-23T01:12:51.179Z,1021.98
2016-12-23T01:13:51.689Z,1021.95
2016-12-23T01:14:51.178Z,1021.95
2016-12-23T01:15:51.445Z,1021.95
2016-12-23T01:16:51.494Z,1021.98
2016-12-23T01:17:51.252Z,1021.96
2016-12-23T01:18:51.288Z,1022
2016-12-23T01:19:51.460Z,1021.99
2016-12-23T01:20:51.411Z,1021.98
2016-12-23T01:21:51.350Z,1022.02
2016-12-23T01:22:51.504Z,1022.07
2016-12-23T01:23:51.546Z,1022.18
2016-12-23T01:24:51.466Z,1022.19
2016-12-23T01:25:51.767Z,1022.18
2016-12-23T01:26:51.532Z,1022.14
2016-12-23T01:27:51.386Z,1022.1
2016-12-23T01:28:51.445Z,1022.07
2016-12-23T01:29:51.556Z,1022.02
2016-12-23T01:30:51.577Z,1022.04
2016-12-23T01:31:51.484Z,1022.05
2016-12-23T01:32:51.646Z,1022.11
2016-12-23T01:33:51.775Z,1022.22
2016-12-23T01:34:51.481Z,1022.19
2016-12-23T01:35:51.740Z,1022.25
2016-12-23T01:36:51.458Z,1022.32
2016-12-23T01:37:51.446Z,1022.33
2016-12-23T01:38:51.435Z,1022.32
2016-12-23T01:39:51.628Z,1022.34
2016-12-23T01:40:51.779Z,1022.33
2016-12-23T01:41:51.819Z,1022.39
2016-12-23T01:42:51.537Z,1022.4
2016-12-23T01:43:51.696Z,1022.33
2016-12-23T01:44:51.619Z,1022.33
2016-12-23T01:45:51.583Z,1022.32
2016-12-23T01:46:51.700Z,1022.3
2016-12-23T01:47:51.682Z,1022.28
2016-12-23T01:48:51.771Z,1022.27
2016-12-23T01:49:51.665Z,1022.26
2016-12-23T01:50:51.827Z,1022.26
2016-12-23T01:51:51.843Z,1022.26
2016-12-23T01:52:51.734Z,1022.3
2016-12-23T01:53:51.934Z,1022.38
2016-12-23T01:54:51.740Z,1022.4
2016-12-23T01:55:52.149Z,1022.42
2016-12-23T01:56:51.910Z,1022.42
2016-12-23T01:57:51.855Z,1022.42
2016-12-23T01:58:51.772Z,1022.39
2016-12-23T01:59:51.893Z,1022.38
2016-12-23T02:00:51.827Z,1022.37
2016-12-23T02:01:51.739Z,1022.36
2016-12-23T02:02:51.966Z,1022.32
2016-12-23T02:03:52.002Z,1022.33
2016-12-23T02:04:52.031Z,1022.34
2016-12-23T02:05:52.017Z,1022.36
2016-12-23T02:06:52.305Z,1022.35
2016-12-23T02:07:52.119Z,1022.37
2016-12-23T02:08:51.969Z,1022.42
2016-12-23T02:09:51.981Z,1022.41
2016-12-23T02:10:52.225Z,1022.44
2016-12-23T02:11:51.992Z,1022.37
2016-12-23T02:12:51.967Z,1022.36
2016-12-23T02:13:52.041Z,1022.37
2016-12-23T02:14:52.068Z,1022.37
2016-12-23T02:15:52.065Z,1022.38
2016-12-23T02:16:52.211Z,1022.37
2016-12-23T02:17:52.411Z,1022.45
2016-12-23T02:18:52.215Z,1022.45
2016-12-23T02:19:52.013Z,1022.41
2016-12-23T02:20:52.083Z,1022.41
2016-12-23T02:21:52.052Z,1022.43
2016-12-23T02:22:52.357Z,1022.41
2016-12-23T02:23:52.279Z,1022.49
2016-12-23T02:24:52.184Z,1022.46
2016-12-23T02:25:52.008Z,1022.47
2016-12-23T02:26:52.080Z,1022.51
2016-12-23T02:27:52.313Z,1022.48
2016-12-23T02:28:52.094Z,1022.46
2016-12-23T02:29:52.282Z,1022.46
2016-12-23T02:30:52.595Z,1022.48
2016-12-23T02:31:52.312Z,1022.46
2016-12-23T02:32:52.275Z,1022.51
2016-12-23T02:33:52.267Z,1022.52
2016-12-23T02:34:52.252Z,1022.5
2016-12-23T02:35:52.307Z,1022.47
2016-12-23T02:36:52.300Z,1022.47
2016-12-23T02:37:52.335Z,1022.49
2016-12-23T02:38:52.760Z,1022.52
2016-12-23T02:39:52.364Z,1022.52
2016-12-23T02:40:52.433Z,1022.51
2016-12-23T02:41:52.730Z,1022.5
2016-12-23T02:42:52.419Z,1022.5
2016-12-23T02:43:52.375Z,1022.45
2016-12-23T02:44:52.412Z,1022.41
2016-12-23T02:45:52.466Z,1022.41
2016-12-23T02:46:52.726Z,1022.42
2016-12-23T02:47:52.616Z,1022.47
2016-12-23T02:48:52.439Z,1022.45
2016-12-23T02:49:52.556Z,1022.45
2016-12-23T02:50:52.673Z,1022.46
2016-12-23T02:51:52.653Z,1022.45
2016-12-23T02:52:52.674Z,1022.47
2016-12-23T02:53:52.681Z,1022.42
2016-12-23T02:54:52.660Z,1022.42
2016-12-23T02:55:52.541Z,1022.37
2016-12-23T02:56:52.581Z,1022.34
2016-12-23T02:57:52.713Z,1022.36
2016-12-23T02:58:52.653Z,1022.34
2016-12-23T02:59:52.476Z,1022.29
2016-12-23T03:00:52.665Z,1022.35
2016-12-23T03:01:52.521Z,1022.37
2016-12-23T03:02:52.795Z,1022.45
2016-12-23T03:03:52.792Z,1022.47
2016-12-23T03:04:52.572Z,1022.52
2016-12-23T03:05:52.744Z,1022.52
2016-12-23T03:06:52.581Z,1022.54
2016-12-23T03:07:52.763Z,1022.49
2016-12-23T03:08:52.715Z,1022.52
2016-12-23T03:09:52.590Z,1022.5
2016-12-23T03:10:52.757Z,1022.45
2016-12-23T03:11:52.735Z,1022.42
2016-12-23T03:12:52.880Z,1022.41
2016-12-23T03:13:52.817Z,1022.36
2016-12-23T03:14:52.777Z,1022.38
2016-12-23T03:15:52.831Z,1022.39
2016-12-23T03:16:52.980Z,1022.4
2016-12-23T03:17:59.149Z,1022.43
2016-12-23T03:18:52.879Z,1022.44
2016-12-23T03:19:52.786Z,1022.43
2016-12-23T03:20:53.145Z,1022.42
2016-12-23T03:21:52.813Z,1022.42
2016-12-23T03:22:53.068Z,1022.46
2016-12-23T03:23:52.884Z,1022.41
2016-12-23T03:24:52.796Z,1022.45
2016-12-23T03:25:53.086Z,1022.43
2016-12-23T03:26:52.860Z,1022.45
2016-12-23T03:27:53.006Z,1022.49
2016-12-23T03:28:53.227Z,1022.51
2016-12-23T03:29:53.289Z,1022.48
2016-12-23T03:30:53.139Z,1022.46
2016-12-23T03:31:52.971Z,1022.44
2016-12-23T03:32:53.273Z,1022.45
2016-12-23T03:33:53.156Z,1022.47
2016-12-23T03:34:53.159Z,1022.51
2016-12-23T03:35:53.030Z,1022.47
2016-12-23T03:36:53.330Z,1022.53
2016-12-23T03:37:53.010Z,1022.51
2016-12-23T03:38:53.153Z,1022.46
2016-12-23T03:39:53.090Z,1022.5
2016-12-23T03:40:53.230Z,1022.46
2016-12-23T03:41:53.351Z,1022.42
2016-12-23T03:42:53.054Z,1022.44
2016-12-23T03:43:53.084Z,1022.4
2016-12-23T03:44:53.392Z,1022.43
2016-12-23T03:45:53.157Z,1022.42
2016-12-23T03:46:53.200Z,1022.38
2016-12-23T03:47:53.629Z,1022.41
2016-12-23T03:48:53.240Z,1022.41
2016-12-23T03:49:53.326Z,1022.43
2016-12-23T03:50:53.473Z,1022.42
2016-12-23T03:51:53.202Z,1022.41
2016-12-23T03:52:53.445Z,1022.4
2016-12-23T03:53:53.276Z,1022.35
2016-12-23T03:54:53.176Z,1022.35
2016-12-23T03:55:53.517Z,1022.42
2016-12-23T03:56:53.244Z,1022.37
2016-12-23T03:57:53.293Z,1022.36
2016-12-23T03:58:53.292Z,1022.36
2016-12-23T03:59:53.405Z,1022.34
2016-12-23T04:00:53.501Z,1022.32
2016-12-23T04:01:53.483Z,1022.35
2016-12-23T04:02:53.486Z,1022.34
2016-12-23T04:03:53.468Z,1022.34
2016-12-23T04:04:53.310Z,1022.31
2016-12-23T04:05:53.453Z,1022.28
2016-12-23T04:06:53.461Z,1022.27
2016-12-23T04:07:53.538Z,1022.32
2016-12-23T04:08:53.536Z,1022.29
2016-12-23T04:09:53.511Z,1022.35
2016-12-23T04:10:53.628Z,1022.29
2016-12-23T04:11:53.880Z,1022.28
2016-12-23T04:12:53.950Z,1022.31
2016-12-23T04:13:53.549Z,1022.28
2016-12-23T04:14:53.716Z,1022.25
2016-12-23T04:15:54.187Z,1022.3
2016-12-23T04:16:53.561Z,1022.37
2016-12-23T04:17:53.634Z,1022.35
2016-12-23T04:18:53.754Z,1022.38
2016-12-23T04:19:53.571Z,1022.36
2016-12-23T04:20:53.899Z,1022.41
2016-12-23T04:21:54.200Z,1022.41
2016-12-23T04:22:53.668Z,1022.41
2016-12-23T04:23:53.853Z,1022.41
2016-12-23T04:24:54.032Z,1022.43
2016-12-23T04:25:53.876Z,1022.45
2016-12-23T04:26:53.891Z,1022.44
2016-12-23T04:27:53.766Z,1022.42
2016-12-23T04:28:53.851Z,1022.45
2016-12-23T04:29:53.655Z,1022.45
2016-12-23T04:30:53.785Z,1022.44
2016-12-23T04:31:53.733Z,1022.42
2016-12-23T04:32:54.005Z,1022.45
2016-12-23T04:33:54.204Z,1022.4
2016-12-23T04:34:53.908Z,1022.41
2016-12-23T04:35:54.111Z,1022.4
2016-12-23T04:36:53.785Z,1022.38
2016-12-23T04:37:54.026Z,1022.42
2016-12-23T04:38:54.009Z,1022.36
2016-12-23T04:39:53.981Z,1022.4
2016-12-23T04:40:53.848Z,1022.38
2016-12-23T04:41:53.769Z,1022.39
2016-12-23T04:42:54.115Z,1022.4
2016-12-23T04:43:54.042Z,1022.43
2016-12-23T04:44:54.003Z,1022.36
2016-12-23T04:45:54.001Z,1022.38
2016-12-23T04:46:54.259Z,1022.37
2016-12-23T04:47:53.958Z,1022.34
2016-12-23T04:48:54.130Z,1022.31
2016-12-23T04:49:54.141Z,1022.3
2016-12-23T04:50:54.114Z,1022.29
2016-12-23T04:51:54.770Z,1022.29
2016-12-23T04:52:54.130Z,1022.26
2016-12-23T04:53:54.335Z,1022.25
2016-12-23T04:54:54.766Z,1022.23
2016-12-23T04:55:54.166Z,1022.21
2016-12-23T04:56:54.197Z,1022.24
2016-12-23T04:57:54.206Z,1022.23
2016-12-23T04:58:54.415Z,1022.25
2016-12-23T04:59:54.117Z,1022.24
2016-12-23T05:00:54.269Z,1022.25
2016-12-23T05:01:54.113Z,1022.23
2016-12-23T05:02:54.259Z,1022.25
2016-12-23T05:03:54.343Z,1022.25
2016-12-23T05:04:54.633Z,1022.29
2016-12-23T05:05:54.164Z,1022.28
2016-12-23T05:06:54.363Z,1022.27
2016-12-23T05:07:54.200Z,1022.34
2016-12-23T05:08:54.190Z,1022.33
2016-12-23T05:09:54.483Z,1022.37
2016-12-23T05:10:54.580Z,1022.35
2016-12-23T05:11:54.563Z,1022.36
2016-12-23T05:12:54.324Z,1022.36
2016-12-23T05:13:54.366Z,1022.32
2016-12-23T05:14:54.527Z,1022.32
2016-12-23T05:15:54.745Z,1022.33
2016-12-23T05:16:54.564Z,1022.32
2016-12-23T05:17:54.530Z,1022.31
2016-12-23T05:18:54.279Z,1022.29
2016-12-23T05:19:54.521Z,1022.31
2016-12-23T05:20:54.515Z,1022.34
2016-12-23T05:21:55.061Z,1022.35
2016-12-23T05:22:54.515Z,1022.36
2016-12-23T05:23:54.586Z,1022.31
2016-12-23T05:24:54.637Z,1022.3
2016-12-23T05:25:54.513Z,1022.26
2016-12-23T05:26:54.617Z,1022.26
2016-12-23T05:27:54.937Z,1022.29
2016-12-23T05:28:54.398Z,1022.29
2016-12-23T05:29:54.678Z,1022.24
2016-12-23T05:30:54.547Z,1022.22
2016-12-23T05:31:54.633Z,1022.21
2016-12-23T05:32:54.607Z,1022.22
2016-12-23T05:33:54.893Z,1022.19
2016-12-23T05:34:54.414Z,1022.18
2016-12-23T05:35:54.682Z,1022.22
2016-12-23T05:36:54.727Z,1022.25
2016-12-23T05:37:54.520Z,1022.27
2016-12-23T05:38:55.111Z,1022.33
2016-12-23T05:39:54.666Z,1022.25
2016-12-23T05:40:54.627Z,1022.27
2016-12-23T05:41:55.048Z,1022.28
2016-12-23T05:42:54.998Z,1022.3
2016-12-23T05:43:54.684Z,1022.26
2016-12-23T05:44:55.207Z,1022.25
2016-12-23T05:45:54.802Z,1022.21
2016-12-23T05:46:54.881Z,1022.27
2016-12-23T05:47:54.762Z,1022.28
2016-12-23T05:48:54.885Z,1022.27
2016-12-23T05:49:54.809Z,1022.34
2016-12-23T05:50:55.365Z,1022.3
2016-12-23T05:51:54.857Z,1022.34
2016-12-23T05:52:54.974Z,1022.3
2016-12-23T05:53:55.034Z,1022.29
2016-12-23T05:54:55.004Z,1022.26
2016-12-23T05:55:54.863Z,1022.25
2016-12-23T05:56:55.077Z,1022.21
2016-12-23T05:57:54.743Z,1022.18
2016-12-23T05:58:54.918Z,1022.2
2016-12-23T05:59:54.928Z,1022.2
2016-12-23T06:00:55.015Z,1022.15
2016-12-23T06:01:54.966Z,1022.11
2016-12-23T06:02:54.876Z,1022.13
2016-12-23T06:03:55.202Z,1022.16
2016-12-23T06:04:54.879Z,1022.19
2016-12-23T06:05:54.976Z,1022.21
2016-12-23T06:06:54.823Z,1022.21
2016-12-23T06:07:54.970Z,1022.27
2016-12-23T06:08:55.300Z,1022.25
2016-12-23T06:09:54.950Z,1022.3
2016-12-23T06:10:55.278Z,1022.28
2016-12-23T06:11:55.102Z,1022.33
2016-12-23T06:12:54.940Z,1022.29
2016-12-23T06:13:55.658Z,1022.29
2016-12-23T06:14:55.077Z,1022.28
2016-12-23T06:15:55.283Z,1022.32
2016-12-23T06:16:54.915Z,1022.35
2016-12-23T06:17:55.150Z,1022.37
2016-12-23T06:18:55.460Z,1022.4
2016-12-23T06:19:55.002Z,1022.36
2016-12-23T06:20:55.281Z,1022.31
2016-12-23T06:21:55.117Z,1022.36
2016-12-23T06:22:55.068Z,1022.3
2016-12-23T06:23:55.240Z,1022.34
2016-12-23T06:24:55.268Z,1022.4
2016-12-23T06:25:55.053Z,1022.37
2016-12-23T06:26:55.446Z,1022.43
2016-12-23T06:27:55.236Z,1022.47
2016-12-23T06:28:55.211Z,1022.5
2016-12-23T06:29:55.382Z,1022.53
2016-12-23T06:30:55.274Z,1022.52
2016-12-23T06:31:55.594Z,1022.54
2016-12-23T06:32:55.346Z,1022.56
2016-12-23T06:33:55.384Z,1022.56
2016-12-23T06:34:55.446Z,1022.58
2016-12-23T06:35:55.364Z,1022.61
2016-12-23T06:36:55.496Z,1022.61
2016-12-23T06:37:55.520Z,1022.58
2016-12-23T06:38:55.743Z,1022.56
2016-12-23T06:39:55.358Z,1022.59
2016-12-23T06:40:55.354Z,1022.59
2016-12-23T06:41:55.654Z,1022.6
2016-12-23T06:42:55.353Z,1022.62
2016-12-23T06:43:55.437Z,1022.63
2016-12-23T06:44:55.391Z,1022.65
2016-12-23T06:45:55.425Z,1022.63
2016-12-23T06:46:55.861Z,1022.68
2016-12-23T06:47:55.442Z,1022.63
2016-12-23T06:48:55.519Z,1022.66
2016-12-23T06:49:56.120Z,1022.68
2016-12-23T06:50:55.394Z,1022.65
2016-12-23T06:51:55.509Z,1022.7
2016-12-23T06:52:55.656Z,1022.68
2016-12-23T06:53:55.719Z,1022.68
2016-12-23T06:54:55.812Z,1022.69
2016-12-23T06:55:55.522Z,1022.67
2016-12-23T06:56:55.826Z,1022.71
2016-12-23T06:57:55.704Z,1022.72
2016-12-23T06:58:55.511Z,1022.71
2016-12-23T06:59:55.980Z,1022.72
2016-12-23T07:00:55.834Z,1022.79
2016-12-23T07:01:56.254Z,1022.78
2016-12-23T07:02:55.665Z,1022.83
2016-12-23T07:03:55.573Z,1022.84
2016-12-23T07:04:55.633Z,1022.8
2016-12-23T07:05:55.875Z,1022.81
2016-12-23T07:06:55.679Z,1022.81
2016-12-23T07:07:55.571Z,1022.85
2016-12-23T07:08:56.168Z,1022.89
2016-12-23T07:09:56.421Z,1022.91
2016-12-23T07:10:55.972Z,1022.97
2016-12-23T07:11:56.339Z,1022.97
2016-12-23T07:12:55.847Z,1022.99
2016-12-23T07:13:55.925Z,1022.99
2016-12-23T07:14:56.478Z,1022.93
2016-12-23T07:15:55.940Z,1022.95
2016-12-23T07:16:56.405Z,1022.93
2016-12-23T07:17:56.367Z,1022.91
2016-12-23T07:18:55.903Z,1022.95
2016-12-23T07:19:56.016Z,1022.93
2016-12-23T07:20:55.797Z,1022.97
2016-12-23T07:21:55.955Z,1022.98
2016-12-23T07:22:55.955Z,1022.99
2016-12-23T07:23:55.954Z,1022.96
2016-12-23T07:24:56.075Z,1022.93
2016-12-23T07:25:55.834Z,1022.95
2016-12-23T07:26:56.132Z,1022.94
2016-12-23T07:27:55.857Z,1023.03
2016-12-23T07:28:55.901Z,1023
2016-12-23T07:29:56.105Z,1023.07
2016-12-23T07:30:55.910Z,1023.1
2016-12-23T07:31:55.986Z,1023.11
2016-12-23T07:32:56.018Z,1023.04
2016-12-23T07:33:55.953Z,1023.01
2016-12-23T07:34:56.130Z,1022.99
2016-12-23T07:35:56.002Z,1023
2016-12-23T07:36:56.011Z,1022.99
2016-12-23T07:37:56.170Z,1022.99
2016-12-23T07:38:56.229Z,1023.02
2016-12-23T07:39:56.065Z,1023.06
2016-12-23T07:40:56.308Z,1023.11
2016-12-23T07:41:56.065Z,1023.14
2016-12-23T07:42:56.300Z,1023.17
2016-12-23T07:43:56.122Z,1023.17
2016-12-23T07:44:56.563Z,1023.22
2016-12-23T07:45:56.308Z,1023.21
2016-12-23T07:46:56.323Z,1023.16
2016-12-23T07:47:56.445Z,1023.1
2016-12-23T07:48:56.386Z,1023.11
2016-12-23T07:49:56.208Z,1023.17
2016-12-23T07:50:56.165Z,1023.18
2016-12-23T07:51:56.329Z,1023.15
2016-12-23T07:52:56.293Z,1023.13
2016-12-23T07:53:56.168Z,1023.14
2016-12-23T07:54:56.480Z,1023.19
2016-12-23T07:55:57.640Z,1023.18
2016-12-23T07:56:56.347Z,1023.22
2016-12-23T07:57:56.325Z,1023.24
2016-12-23T07:58:56.320Z,1023.28
2016-12-23T07:59:56.367Z,1023.3
2016-12-23T08:00:56.403Z,1023.35
2016-12-23T08:01:56.670Z,1023.38
2016-12-23T08:02:56.378Z,1023.4
2016-12-23T08:03:57.057Z,1023.4
2016-12-23T08:04:56.558Z,1023.4
2016-12-23T08:05:56.483Z,1023.38
2016-12-23T08:06:56.750Z,1023.36
2016-12-23T08:07:56.379Z,1023.32
2016-12-23T08:08:56.811Z,1023.37
2016-12-23T08:09:56.438Z,1023.37
2016-12-23T08:10:56.483Z,1023.38
2016-12-23T08:11:56.488Z,1023.39
2016-12-23T08:12:56.476Z,1023.37
2016-12-23T08:13:56.467Z,1023.39
2016-12-23T08:14:56.477Z,1023.44
2016-12-23T08:15:56.620Z,1023.47
2016-12-23T08:16:56.659Z,1023.47
2016-12-23T08:17:56.481Z,1023.53
2016-12-23T08:18:57.065Z,1023.54
2016-12-23T08:19:57.067Z,1023.55
2016-12-23T08:20:56.827Z,1023.55
2016-12-23T08:21:56.611Z,1023.57
2016-12-23T08:22:56.513Z,1023.59
2016-12-23T08:23:56.650Z,1023.61
2016-12-23T08:24:56.727Z,1023.6
2016-12-23T08:25:56.944Z,1023.56
2016-12-23T08:26:56.844Z,1023.54
2016-12-23T08:27:56.965Z,1023.56
2016-12-23T08:28:57.287Z,1023.54
2016-12-23T08:29:56.639Z,1023.49
2016-12-23T08:30:56.730Z,1023.46
2016-12-23T08:31:56.731Z,1023.45
2016-12-23T08:32:56.796Z,1023.49
2016-12-23T08:33:56.920Z,1023.5
2016-12-23T08:34:56.983Z,1023.5
2016-12-23T08:35:56.663Z,1023.54
2016-12-23T08:36:56.750Z,1023.53
2016-12-23T08:37:56.940Z,1023.49
2016-12-23T08:38:56.754Z,1023.49
2016-12-23T08:39:56.835Z,1023.45
2016-12-23T08:40:56.970Z,1023.42
2016-12-23T08:41:56.902Z,1023.42
2016-12-23T08:42:56.990Z,1023.42
2016-12-23T08:43:56.912Z,1023.42
2016-12-23T08:44:57.080Z,1023.44
2016-12-23T08:45:57.072Z,1023.5
2016-12-23T08:46:56.936Z,1023.55
2016-12-23T08:47:56.949Z,1023.59
2016-12-23T08:48:57.806Z,1023.6
2016-12-23T08:49:57.105Z,1023.59
2016-12-23T08:50:57.034Z,1023.56
2016-12-23T08:51:57.043Z,1023.6
2016-12-23T08:52:57.096Z,1023.56
2016-12-23T08:53:57.213Z,1023.56
2016-12-23T08:54:57.625Z,1023.57
2016-12-23T08:55:57.097Z,1023.56
2016-12-23T08:56:57.001Z,1023.59
2016-12-23T08:57:56.974Z,1023.61
2016-12-23T08:58:57.009Z,1023.59
2016-12-23T08:59:57.302Z,1023.59
2016-12-23T09:00:57.061Z,1023.53
2016-12-23T09:01:57.089Z,1023.52
2016-12-23T09:02:57.196Z,1023.52
2016-12-23T09:03:57.241Z,1023.52
2016-12-23T09:04:57.219Z,1023.64
2016-12-23T09:05:57.263Z,1023.63
2016-12-23T09:06:57.078Z,1023.63
2016-12-23T09:07:57.287Z,1023.67
2016-12-23T09:08:57.217Z,1023.67
2016-12-23T09:09:57.304Z,1023.7
2016-12-23T09:10:57.294Z,1023.73
2016-12-23T09:11:57.145Z,1023.71
2016-12-23T09:12:57.326Z,1023.67
2016-12-23T09:13:57.215Z,1023.7
2016-12-23T09:14:57.262Z,1023.68
2016-12-23T09:15:57.452Z,1023.68
2016-12-23T09:16:57.581Z,1023.68
2016-12-23T09:17:57.940Z,1023.75
2016-12-23T09:18:57.463Z,1023.72
2016-12-23T09:19:57.543Z,1023.73
2016-12-23T09:20:57.657Z,1023.71
2016-12-23T09:21:57.663Z,1023.73
2016-12-23T09:22:57.756Z,1023.82
2016-12-23T09:23:57.543Z,1023.76
2016-12-23T09:24:57.492Z,1023.79
2016-12-23T09:25:57.704Z,1023.79
2016-12-23T09:26:58.051Z,1023.78
2016-12-23T09:27:57.727Z,1023.83
2016-12-23T09:28:57.655Z,1023.82
2016-12-23T09:29:57.604Z,1023.84
2016-12-23T09:30:57.696Z,1023.83
2016-12-23T09:31:57.775Z,1023.87
2016-12-23T09:32:57.620Z,1023.87
2016-12-23T09:33:57.655Z,1023.88
2016-12-23T09:34:57.947Z,1023.85
2016-12-23T09:35:57.991Z,1023.81
2016-12-23T09:36:57.876Z,1023.9
2016-12-23T09:38:00.008Z,1023.87
2016-12-23T09:38:58.164Z,1023.91
2016-12-23T09:39:59.876Z,1023.95
2016-12-23T09:40:59.257Z,1023.92
2016-12-23T09:41:59.539Z,1023.98
2016-12-23T09:42:58.701Z,1024.01
2016-12-23T09:43:58.561Z,1023.97
2016-12-23T09:44:59.193Z,1023.96
2016-12-23T09:45:58.931Z,1023.96
2016-12-23T09:46:58.004Z,1023.96
2016-12-23T09:48:58.912Z,1023.98
2016-12-23T09:49:59.830Z,1023.96
2016-12-23T09:51:00.132Z,1023.99
2016-12-23T09:52:00.145Z,1024.07
2016-12-23T09:52:58.355Z,1024.06
2016-12-23T09:54:59.762Z,1024.09
2016-12-23T09:55:59.995Z,1024.11
2016-12-23T09:56:59.296Z,1024.06
2016-12-23T09:57:58.547Z,1024.03
2016-12-23T09:58:58.749Z,1024.02
2016-12-23T10:00:01.937Z,1024.07
2016-12-23T10:00:57.874Z,1023.98
2016-12-23T10:01:58.502Z,1023.96
2016-12-23T10:02:58.351Z,1023.96
2016-12-23T10:03:58.326Z,1024
2016-12-23T10:04:57.830Z,1023.94
2016-12-23T10:05:57.924Z,1023.91
2016-12-23T10:06:58.126Z,1023.86
2016-12-23T10:07:58.041Z,1023.84
2016-12-23T10:08:58.002Z,1023.83
2016-12-23T10:09:58.191Z,1023.79
2016-12-23T10:10:58.041Z,1023.74
2016-12-23T10:11:58.301Z,1023.72
2016-12-23T10:12:58.038Z,1023.65
2016-12-23T10:13:57.920Z,1023.61
2016-12-23T10:14:58.221Z,1023.59
2016-12-23T10:15:58.199Z,1023.59
2016-12-23T10:16:58.403Z,1023.57
2016-12-23T10:17:58.456Z,1023.57
2016-12-23T10:18:58.077Z,1023.62
2016-12-23T10:19:58.431Z,1023.62
2016-12-23T10:20:58.350Z,1023.62
2016-12-23T10:21:58.125Z,1023.66
2016-12-23T10:22:58.677Z,1023.65
2016-12-23T10:23:58.281Z,1023.64
2016-12-23T10:24:58.238Z,1023.68
2016-12-23T10:25:58.513Z,1023.68
2016-12-23T10:26:58.431Z,1023.68
2016-12-23T10:27:58.143Z,1023.74
2016-12-23T10:28:58.482Z,1023.68
2016-12-23T10:29:58.194Z,1023.62
2016-12-23T10:30:58.238Z,1023.65
2016-12-23T10:31:58.349Z,1023.59
2016-12-23T10:32:58.418Z,1023.59
2016-12-23T10:33:58.420Z,1023.53
2016-12-23T10:34:58.419Z,1023.53
2016-12-23T10:35:58.452Z,1023.53
2016-12-23T10:36:58.764Z,1023.58
2016-12-23T10:37:58.770Z,1023.66
2016-12-23T10:38:58.355Z,1023.68
2016-12-23T10:39:58.532Z,1023.68
2016-12-23T10:40:58.587Z,1023.71
2016-12-23T10:41:58.458Z,1023.73
2016-12-23T10:42:58.649Z,1023.72
2016-12-23T10:43:58.587Z,1023.63
2016-12-23T10:44:59.050Z,1023.66
2016-12-23T10:45:58.953Z,1023.68
2016-12-23T10:46:58.410Z,1023.67
2016-12-23T10:47:58.883Z,1023.66
2016-12-23T10:48:58.677Z,1023.63
2016-12-23T10:49:59.026Z,1023.59
2016-12-23T10:50:58.398Z,1023.59
2016-12-23T10:51:58.821Z,1023.61
2016-12-23T10:52:58.955Z,1023.54
2016-12-23T10:53:58.708Z,1023.47
2016-12-23T10:54:58.877Z,1023.42
2016-12-23T10:55:58.556Z,1023.41
2016-12-23T10:56:59.095Z,1023.43
2016-12-23T10:57:59.298Z,1023.41
2016-12-23T10:58:58.898Z,1023.42
2016-12-23T10:59:59.296Z,1023.41
2016-12-23T11:00:59.103Z,1023.39
2016-12-23T11:01:58.919Z,1023.33
2016-12-23T11:02:59.287Z,1023.32
2016-12-23T11:03:59.196Z,1023.31
2016-12-23T11:04:58.893Z,1023.28
2016-12-23T11:05:59.081Z,1023.29
2016-12-23T11:06:58.765Z,1023.38
2016-12-23T11:07:58.775Z,1023.26
2016-12-23T11:08:59.237Z,1023.29
2016-12-23T11:09:58.996Z,1023.31
2016-12-23T11:10:58.728Z,1023.23
2016-12-23T11:11:58.870Z,1023.2
2016-12-23T11:12:59.580Z,1023.18
2016-12-23T11:13:58.870Z,1023.13
2016-12-23T11:14:58.792Z,1023.1
2016-12-23T11:15:58.958Z,1023.09
2016-12-23T11:16:58.946Z,1023.1
2016-12-23T11:17:59.018Z,1023.07
2016-12-23T11:18:59.007Z,1023.04
2016-12-23T11:19:59.111Z,1023.01
2016-12-23T11:20:58.984Z,1023.01
2016-12-23T11:21:59.107Z,1023
2016-12-23T11:22:58.987Z,1022.96
2016-12-23T11:23:59.028Z,1023
2016-12-23T11:24:59.194Z,1022.95
2016-12-23T11:25:59.034Z,1022.98
2016-12-23T11:26:59.124Z,1022.9
2016-12-23T11:27:59.257Z,1022.99
2016-12-23T11:28:58.960Z,1022.96
2016-12-23T11:29:59.010Z,1022.98
2016-12-23T11:30:59.202Z,1022.96
2016-12-23T11:31:59.108Z,1022.91
2016-12-23T11:32:59.156Z,1022.91
2016-12-23T11:33:59.433Z,1022.97
2016-12-23T11:34:59.507Z,1022.97
2016-12-23T11:35:59.081Z,1022.95
2016-12-23T11:36:59.356Z,1022.93
2016-12-23T11:37:59.243Z,1022.91
2016-12-23T11:38:59.409Z,1022.91
2016-12-23T11:39:59.415Z,1022.95
2016-12-23T11:40:59.756Z,1022.97
2016-12-23T11:41:59.435Z,1022.92
2016-12-23T11:42:59.605Z,1022.9
2016-12-23T11:43:59.333Z,1022.95
2016-12-23T11:44:59.328Z,1022.94
2016-12-23T11:45:59.736Z,1022.91
2016-12-23T11:46:59.605Z,1022.87
2016-12-23T11:47:59.411Z,1022.83
2016-12-23T11:48:59.322Z,1022.81
2016-12-23T11:49:59.355Z,1022.8
2016-12-23T11:50:59.778Z,1022.73
2016-12-23T11:51:59.398Z,1022.78
2016-12-23T11:52:59.385Z,1022.78
2016-12-23T11:53:59.466Z,1022.75
2016-12-23T11:54:59.769Z,1022.71
2016-12-23T11:55:59.584Z,1022.7
2016-12-23T11:56:59.699Z,1022.64
2016-12-23T11:57:59.618Z,1022.65
2016-12-23T11:58:59.702Z,1022.64
2016-12-23T11:59:59.663Z,1022.64
2016-12-23T12:00:59.433Z,1022.54
2016-12-23T12:01:59.548Z,1022.54
2016-12-23T12:02:59.720Z,1022.6
2016-12-23T12:03:59.773Z,1022.62
2016-12-23T12:04:59.708Z,1022.61
2016-12-23T12:05:59.739Z,1022.57
2016-12-23T12:06:59.740Z,1022.54
2016-12-23T12:07:59.871Z,1022.5
2016-12-23T12:08:59.704Z,1022.47
2016-12-23T12:10:00.012Z,1022.41
2016-12-23T12:10:59.683Z,1022.4